Time;durP1;ratioP1;P1;durP2;ratioP2;P2;SDS_P1;SDS_P2;PMS_P1;PMS_P2;Temp;Humidity;BMP_temperature;BMP_pressure;BME280_temperature;BME280_humidity;BME280_pressure;Samples;Min_cycle;Max_cycle;Signal;HPM_P1;HPM_P2
2020/12/31 00:00:36;;;;;;;4.18;1.83;;;4.10;99.90;;;;;;4928748;28;20037;-84
2020/12/31 00:03:02;;;;;;;3.40;1.20;;;4.10;99.90;;;;;;4943105;28;20102;-84
2020/12/31 00:05:28;;;;;;;2.38;1.33;;;4.10;99.90;;;;;;4958740;28;20030;-84
2020/12/31 00:07:53;;;;;;;3.67;1.52;;;4.00;99.90;;;;;;4959329;28;20042;-84
2020/12/31 00:10:19;;;;;;;2.85;1.50;;;4.10;99.90;;;;;;4956567;28;20042;-89
2020/12/31 00:12:44;;;;;;;3.67;1.85;;;4.10;99.90;;;;;;4978315;28;20392;-84
2020/12/31 00:15:10;;;;;;;5.00;1.50;;;4.10;99.90;;;;;;4943361;28;20058;-85
2020/12/31 00:17:36;;;;;;;6.68;2.10;;;4.10;99.90;;;;;;4942957;28;20027;-84
2020/12/31 00:20:01;;;;;;;3.80;1.77;;;4.10;99.90;;;;;;4974416;28;20042;-84
2020/12/31 00:22:27;;;;;;;4.45;1.50;;;4.20;99.90;;;;;;4942054;28;20038;-85
2020/12/31 00:24:53;;;;;;;3.80;1.88;;;4.20;99.90;;;;;;4942405;28;20034;-84
2020/12/31 00:27:19;;;;;;;5.10;2.00;;;4.20;99.90;;;;;;4958223;28;20445;-85
2020/12/31 00:29:44;;;;;;;3.17;1.90;;;4.00;99.90;;;;;;4943281;28;20035;-84
2020/12/31 00:32:10;;;;;;;3.33;1.30;;;4.00;99.90;;;;;;4927930;28;20502;-84
2020/12/31 00:34:35;;;;;;;1.90;1.20;;;3.90;99.90;;;;;;4942196;28;20428;-84
2020/12/31 00:37:01;;;;;;;3.45;1.58;;;4.00;99.90;;;;;;4942536;28;20051;-82
2020/12/31 00:39:27;;;;;;;5.18;1.40;;;4.10;99.90;;;;;;4927283;28;20038;-83
2020/12/31 00:41:53;;;;;;;5.80;2.50;;;4.10;99.90;;;;;;4960002;28;20027;-84
2020/12/31 00:44:19;;;;;;;3.28;1.83;;;4.10;99.90;;;;;;4944409;28;20081;-84
2020/12/31 00:46:44;;;;;;;2.22;1.67;;;4.20;99.90;;;;;;4943407;28;20042;-84
2020/12/31 00:49:10;;;;;;;3.17;1.90;;;4.10;99.90;;;;;;4946729;28;20066;-85
2020/12/31 00:51:35;;;;;;;4.75;2.00;;;4.20;99.90;;;;;;4942302;28;20351;-84
2020/12/31 00:54:01;;;;;;;6.38;2.50;;;3.90;99.90;;;;;;4926012;28;20031;-84
2020/12/31 00:56:27;;;;;;;4.43;1.80;;;4.00;99.90;;;;;;4941468;28;20045;-84
2020/12/31 00:58:52;;;;;;;4.47;2.03;;;4.20;99.90;;;;;;4925623;28;20034;-84
2020/12/31 01:01:18;;;;;;;7.22;2.70;;;4.30;99.90;;;;;;4941736;28;20093;-85
2020/12/31 01:03:44;;;;;;;3.38;2.55;;;4.20;99.90;;;;;;4957655;28;20552;-84
2020/12/31 01:06:10;;;;;;;4.35;2.70;;;4.20;99.90;;;;;;4957204;28;20051;-85
2020/12/31 01:08:35;;;;;;;6.82;3.63;;;3.90;99.90;;;;;;4941581;28;20031;-84
2020/12/31 01:11:01;;;;;;;4.85;3.42;;;4.00;99.90;;;;;;4941857;28;20031;-85
2020/12/31 01:13:27;;;;;;;5.68;3.10;;;3.90;99.90;;;;;;4975819;28;20085;-83
2020/12/31 01:15:52;;;;;;;5.05;3.08;;;3.80;99.90;;;;;;4957438;28;20493;-84
2020/12/31 01:18:18;;;;;;;5.72;3.05;;;3.90;99.90;;;;;;4927077;28;20418;-84
2020/12/31 01:20:44;;;;;;;4.65;3.85;;;4.00;99.90;;;;;;4927307;28;20058;-84
2020/12/31 01:23:09;;;;;;;7.47;4.55;;;4.10;99.90;;;;;;4958452;28;20066;-84
2020/12/31 01:25:35;;;;;;;7.75;4.93;;;3.90;99.90;;;;;;4941746;28;20416;-84
2020/12/31 01:28:02;;;;;;;12.23;6.38;;;3.90;99.90;;;;;;4957574;28;20031;-84
2020/12/31 01:30:27;;;;;;;10.38;7.47;;;4.00;99.90;;;;;;4956831;28;20039;-83
2020/12/31 01:32:53;;;;;;;8.98;6.05;;;3.90;99.90;;;;;;4974575;28;20488;-84
2020/12/31 01:35:19;;;;;;;13.45;6.55;;;3.80;99.90;;;;;;4941464;28;20165;-83
2020/12/31 01:37:45;;;;;;;6.88;5.30;;;3.90;99.90;;;;;;4941069;28;20165;-83
2020/12/31 01:40:11;;;;;;;12.05;7.53;;;3.90;99.90;;;;;;4941115;28;20126;-84
2020/12/31 01:42:40;;;;;;;11.43;6.88;;;3.70;99.90;;;;;;4941185;28;20038;-84
2020/12/31 01:45:06;;;;;;;12.73;7.03;;;3.70;99.90;;;;;;4974502;28;20023;-84
2020/12/31 01:47:32;;;;;;;10.98;6.72;;;3.80;99.90;;;;;;4941079;28;20030;-84
2020/12/31 01:49:58;;;;;;;12.40;7.55;;;3.90;99.90;;;;;;4974227;28;20572;-84
2020/12/31 01:52:24;;;;;;;12.85;7.63;;;3.80;99.90;;;;;;4956570;28;20118;-85
2020/12/31 01:54:50;;;;;;;11.05;7.15;;;3.80;99.90;;;;;;4941166;28;20109;-84
2020/12/31 01:57:16;;;;;;;12.93;5.95;;;4.10;99.90;;;;;;4956898;28;20058;-84
2020/12/31 01:59:41;;;;;;;10.98;6.68;;;4.20;99.90;;;;;;4924999;28;20039;-84
2020/12/31 02:02:08;;;;;;;8.82;6.00;;;4.20;99.90;;;;;;4925215;28;20038;-84
2020/12/31 02:04:37;;;;;;;10.27;5.13;;;4.40;99.90;;;;;;4940690;28;20396;-84
2020/12/31 02:07:04;;;;;;;9.35;5.97;;;4.50;99.90;;;;;;4956823;28;20436;-84
2020/12/31 02:09:30;;;;;;;10.38;6.35;;;4.50;99.90;;;;;;4956481;28;20113;-85
2020/12/31 02:12:04;;;;;;;8.52;6.57;;;4.30;99.90;;;;;;4940838;28;20027;-84
2020/12/31 02:14:29;;;;;;;11.35;8.50;;;4.20;99.90;;;;;;4956502;28;20051;-84
2020/12/31 02:16:55;;;;;;;12.65;7.57;;;4.20;99.90;;;;;;4974513;28;20054;-84
2020/12/31 02:19:21;;;;;;;10.07;7.20;;;4.00;99.90;;;;;;4956721;28;20035;-84
2020/12/31 02:21:51;;;;;;;10.73;7.22;;;4.20;99.90;;;;;;4956415;28;20506;-84
2020/12/31 02:24:18;;;;;;;10.85;8.70;;;4.30;99.90;;;;;;4940714;28;20090;-85
2020/12/31 02:26:46;;;;;;;12.32;8.00;;;4.20;99.90;;;;;;4972526;28;20481;-84
2020/12/31 02:29:13;;;;;;;11.25;7.65;;;4.10;99.90;;;;;;4956646;28;20082;-84
2020/12/31 02:31:40;;;;;;;11.20;7.28;;;4.30;99.90;;;;;;4956301;28;20031;-84
2020/12/31 02:34:07;;;;;;;8.70;7.07;;;4.40;99.90;;;;;;4940528;28;20400;-84
2020/12/31 02:36:35;;;;;;;10.50;7.60;;;4.40;99.90;;;;;;4924872;28;20487;-85
2020/12/31 02:39:06;;;;;;;9.70;7.15;;;4.50;99.90;;;;;;4973662;28;20488;-84
2020/12/31 02:41:32;;;;;;;10.95;7.10;;;4.50;99.90;;;;;;4975058;28;20031;-84
2020/12/31 02:43:57;;;;;;;11.13;7.07;;;4.60;99.90;;;;;;4945457;28;20039;-84
2020/12/31 02:46:23;;;;;;;7.90;6.03;;;4.60;99.90;;;;;;4960955;28;20031;-84
2020/12/31 02:48:50;;;;;;;6.68;5.55;;;4.60;99.90;;;;;;4963603;28;20039;-83
2020/12/31 02:51:20;;;;;;;9.23;6.50;;;4.60;99.90;;;;;;4972852;28;20026;-82
2020/12/31 02:53:46;;;;;;;5.97;4.95;;;4.40;99.90;;;;;;4984048;28;20027;-84
2020/12/31 02:56:17;;;;;;;6.43;4.78;;;4.00;99.90;;;;;;4960653;28;20035;-84
2020/12/31 02:58:43;;;;;;;9.10;4.78;;;4.10;99.90;;;;;;4959592;28;20054;-84
2020/12/31 03:01:09;;;;;;;8.65;4.55;;;4.10;99.90;;;;;;4976959;28;20117;-84
2020/12/31 03:03:35;;;;;;;5.70;4.18;;;4.10;99.90;;;;;;4976759;28;20106;-84
2020/12/31 03:06:01;;;;;;;10.35;3.85;;;4.10;99.90;;;;;;4976756;28;20500;-84
2020/12/31 03:08:27;;;;;;;9.13;3.65;;;4.10;99.90;;;;;;4943710;28;20031;-84
2020/12/31 03:10:54;;;;;;;7.30;4.55;;;4.10;99.90;;;;;;4943216;28;20492;-85
2020/12/31 03:13:25;;;;;;;4.75;3.75;;;4.00;99.90;;;;;;4976733;28;20035;-84
2020/12/31 03:15:52;;;;;;;4.97;3.65;;;4.00;99.90;;;;;;4976943;28;20543;-84
2020/12/31 03:18:18;;;;;;;6.20;3.38;;;4.10;99.90;;;;;;4927671;28;20121;-85
2020/12/31 03:20:44;;;;;;;7.07;3.50;;;4.20;99.90;;;;;;4959237;28;20576;-84
2020/12/31 03:23:12;;;;;;;6.30;3.80;;;4.30;99.90;;;;;;4943391;28;20026;-84
2020/12/31 03:25:37;;;;;;;8.30;3.97;;;4.10;99.90;;;;;;4943303;28;20039;-84
2020/12/31 03:28:03;;;;;;;10.52;5.07;;;4.10;99.90;;;;;;4943550;28;20038;-84
2020/12/31 03:30:30;;;;;;;6.50;4.53;;;4.00;99.90;;;;;;4947168;28;20489;-84
2020/12/31 03:32:56;;;;;;;9.07;5.35;;;3.90;99.90;;;;;;4959630;28;20030;-83
2020/12/31 03:35:22;;;;;;;8.30;5.45;;;3.80;99.90;;;;;;4943220;28;20042;-83
2020/12/31 03:37:47;;;;;;;9.48;6.03;;;3.70;99.90;;;;;;4975144;28;20174;-85
2020/12/31 03:40:13;;;;;;;11.13;6.50;;;3.80;99.90;;;;;;4943160;28;20377;-85
2020/12/31 03:42:38;;;;;;;9.65;7.05;;;3.60;99.90;;;;;;4926967;28;20031;-83
2020/12/31 03:45:04;;;;;;;10.00;6.03;;;3.60;99.90;;;;;;4943115;28;20098;-85
2020/12/31 03:47:30;;;;;;;11.50;7.80;;;3.70;99.90;;;;;;4974795;28;20027;-84
2020/12/31 03:49:55;;;;;;;8.65;6.20;;;3.70;99.90;;;;;;4974903;28;20122;-84
2020/12/31 03:52:21;;;;;;;10.00;7.03;;;3.70;99.90;;;;;;4942375;28;20469;-84
2020/12/31 03:54:46;;;;;;;14.30;8.80;;;3.60;99.90;;;;;;4942472;28;20062;-84
2020/12/31 03:57:12;;;;;;;11.70;8.60;;;3.50;99.90;;;;;;4942765;28;20031;-84
2020/12/31 03:59:38;;;;;;;12.07;9.15;;;3.60;99.90;;;;;;4942625;28;20042;-84
2020/12/31 04:02:03;;;;;;;12.95;8.43;;;3.70;99.90;;;;;;4958998;28;20126;-84
2020/12/31 04:04:29;;;;;;;16.00;11.73;;;3.80;99.90;;;;;;4958807;28;20039;-84
2020/12/31 04:06:54;;;;;;;16.27;11.85;;;3.80;99.90;;;;;;4975879;28;20032;-85
2020/12/31 04:09:20;;;;;;;20.83;14.38;;;3.70;99.90;;;;;;4926772;28;20070;-84
2020/12/31 04:11:45;;;;;;;25.60;16.92;;;3.60;99.90;;;;;;4958585;28;20035;-84
2020/12/31 04:14:11;;;;;;;24.02;14.45;;;3.70;99.90;;;;;;4958213;28;20041;-87
2020/12/31 04:16:37;;;;;;;20.17;14.35;;;3.80;99.90;;;;;;4958749;28;20365;-84
2020/12/31 04:19:02;;;;;;;23.88;17.15;;;3.90;99.90;;;;;;4958728;28;20035;-84
2020/12/31 04:21:28;;;;;;;30.00;19.25;;;3.80;99.90;;;;;;4926638;28;20188;-84
2020/12/31 04:23:53;;;;;;;29.50;17.83;;;3.70;99.90;;;;;;4958155;28;20068;-84
2020/12/31 04:26:19;;;;;;;28.13;19.70;;;3.70;99.90;;;;;;4958329;28;20114;-84
2020/12/31 04:28:44;;;;;;;30.75;20.75;;;3.70;99.90;;;;;;4975086;28;20034;-83
2020/12/31 04:31:10;;;;;;;29.15;20.67;;;3.80;99.90;;;;;;4975568;28;20034;-84
2020/12/31 04:33:36;;;;;;;30.42;21.50;;;3.70;99.90;;;;;;4960790;28;20057;-84
2020/12/31 04:36:02;;;;;;;27.80;19.80;;;3.80;99.90;;;;;;4960841;28;20102;-84
2020/12/31 04:38:27;;;;;;;35.08;23.15;;;3.60;99.90;;;;;;4975098;28;20365;-83
2020/12/31 04:40:53;;;;;;;32.70;21.38;;;3.60;99.90;;;;;;4957593;28;20038;-84
2020/12/31 04:43:20;;;;;;;29.70;21.60;;;3.60;99.90;;;;;;4942344;28;20019;-83
2020/12/31 04:45:46;;;;;;;31.58;21.67;;;3.70;99.90;;;;;;4942162;28;20038;-84
2020/12/31 04:48:33;;;;;;;32.20;21.52;;;3.80;99.90;;;;;;4958320;28;20083;-83
2020/12/31 04:51:01;;;;;;;31.85;22.05;;;3.90;99.90;;;;;;4975186;28;20034;-83
2020/12/31 04:53:27;;;;;;;32.47;21.75;;;4.00;99.90;;;;;;4975061;28;20026;-84
2020/12/31 04:55:53;;;;;;;28.58;20.75;;;4.00;99.90;;;;;;4957559;28;20033;-85
2020/12/31 04:58:19;;;;;;;30.38;21.80;;;4.00;99.90;;;;;;4941887;28;20035;-84
2020/12/31 05:00:46;;;;;;;33.65;22.17;;;3.90;99.90;;;;;;4974833;28;20109;-84
2020/12/31 05:03:12;;;;;;;38.30;26.30;;;3.80;99.90;;;;;;4957270;28;20034;-84
2020/12/31 05:05:38;;;;;;;37.28;24.75;;;3.70;99.90;;;;;;4957968;28;20027;-84
2020/12/31 05:08:05;;;;;;;38.75;26.95;;;3.70;99.90;;;;;;4943209;28;20034;-83
2020/12/31 05:10:32;;;;;;;35.50;24.40;;;3.60;99.90;;;;;;4958337;28;20043;-85
2020/12/31 05:13:06;;;;;;;34.53;23.55;;;3.80;99.90;;;;;;4957627;28;20093;-83
2020/12/31 05:15:42;;;;;;;39.38;26.52;;;3.70;99.90;;;;;;4957524;28;20400;-84
2020/12/31 05:18:25;;;;;;;36.00;24.23;;;3.60;99.90;;;;;;4957232;28;20042;-83
2020/12/31 05:20:53;;;;;;;41.95;25.80;;;3.60;99.90;;;;;;4942214;28;20035;-83
2020/12/31 05:23:24;;;;;;;33.80;24.02;;;3.80;99.90;;;;;;4988675;28;20057;-83
2020/12/31 05:25:50;;;;;;;39.50;25.80;;;3.70;99.90;;;;;;4958188;28;20030;-84
2020/12/31 05:28:33;;;;;;;33.75;23.10;;;3.80;99.90;;;;;;4941841;28;20463;-84
2020/12/31 05:31:03;;;;;;;41.97;26.00;;;3.90;99.90;;;;;;4974537;28;20038;-84
2020/12/31 05:33:33;;;;;;;40.65;26.75;;;3.80;99.90;;;;;;4975043;28;20027;-84
2020/12/31 05:36:24;;;;;;;33.38;23.83;;;3.70;99.90;;;;;;4957452;28;20027;-84
2020/12/31 05:39:00;;;;;;;34.25;22.85;;;3.90;99.90;;;;;;4957334;28;20034;-84
2020/12/31 05:41:29;;;;;;;34.30;22.33;;;4.00;99.90;;;;;;4957423;28;20416;-84
2020/12/31 05:44:06;;;;;;;35.38;22.80;;;4.00;99.90;;;;;;4960696;28;20030;-84
2020/12/31 05:46:33;;;;;;;33.42;23.10;;;3.90;99.90;;;;;;4957850;28;20027;-83
2020/12/31 05:49:05;;;;;;;34.38;22.90;;;3.80;99.90;;;;;;4957163;28;20031;-84
2020/12/31 05:51:39;;;;;;;40.00;25.45;;;3.60;99.90;;;;;;4957399;28;20050;-84
2020/12/31 05:54:13;;;;;;;38.88;25.52;;;3.70;99.90;;;;;;4974872;28;20468;-84
2020/12/31 05:56:42;;;;;;;35.22;22.77;;;3.70;99.90;;;;;;4975349;28;20033;-84
2020/12/31 05:59:25;;;;;;;33.33;23.30;;;3.70;99.90;;;;;;4958077;28;20043;-84
2020/12/31 06:01:58;;;;;;;37.10;22.65;;;3.70;99.90;;;;;;4942882;28;20476;-85
2020/12/31 06:04:30;;;;;;;39.28;25.42;;;3.80;99.90;;;;;;4958451;28;20086;-84
2020/12/31 06:07:00;;;;;;;36.55;23.65;;;3.80;99.90;;;;;;4959033;28;20027;-84
2020/12/31 06:09:31;;;;;;;36.17;24.35;;;3.70;99.90;;;;;;4958525;28;20113;-84
2020/12/31 06:12:07;;;;;;;35.20;23.95;;;3.80;99.90;;;;;;4959214;28;20033;-84
2020/12/31 06:14:35;;;;;;;35.42;22.60;;;3.90;99.90;;;;;;4957470;28;20046;-84
2020/12/31 06:17:02;;;;;;;38.63;24.45;;;4.10;99.90;;;;;;4961067;28;20049;-84
2020/12/31 06:19:31;;;;;;;36.53;23.50;;;4.10;99.90;;;;;;4960144;28;20041;-84
2020/12/31 06:22:00;;;;;;;37.40;23.20;;;4.20;99.90;;;;;;4977889;28;20034;-84
2020/12/31 06:24:36;;;;;;;34.67;22.98;;;4.20;99.90;;;;;;4977684;28;20027;-84
2020/12/31 06:27:11;;;;;;;28.58;21.30;;;4.30;99.90;;;;;;4960189;28;20034;-85
2020/12/31 06:29:44;;;;;;;33.95;22.30;;;4.40;99.90;;;;;;4960167;28;20035;-86
2020/12/31 06:32:27;;;;;;;32.28;20.58;;;4.50;99.90;;;;;;4960381;28;20029;-84
2020/12/31 06:35:17;;;;;;;34.38;22.48;;;4.40;99.90;;;;;;4961193;28;20051;-83
2020/12/31 06:37:56;;;;;;;33.45;22.05;;;4.50;99.90;;;;;;4960640;28;20023;-84
2020/12/31 06:40:26;;;;;;;30.02;20.65;;;4.50;99.90;;;;;;4960412;28;20035;-84
2020/12/31 06:43:11;;;;;;;30.85;21.67;;;4.60;99.90;;;;;;4960251;28;20118;-89
2020/12/31 06:45:37;;;;;;;33.08;21.85;;;4.70;99.90;;;;;;4960465;28;20053;-84
2020/12/31 06:48:24;;;;;;;34.80;22.15;;;4.70;99.90;;;;;;4944292;28;20113;-84
2020/12/31 06:50:57;;;;;;;30.17;20.83;;;4.70;99.90;;;;;;4977237;28;20051;-84
2020/12/31 06:53:45;;;;;;;30.45;21.50;;;4.70;99.90;;;;;;4960308;28;20027;-84
2020/12/31 06:56:13;;;;;;;35.13;22.05;;;4.60;99.90;;;;;;4959953;28;20169;-85
2020/12/31 06:58:39;;;;;;;32.53;22.35;;;4.60;99.90;;;;;;4977358;28;20030;-85
2020/12/31 07:01:28;;;;;;;35.60;21.65;;;4.40;99.90;;;;;;4960021;28;20054;-85
2020/12/31 07:03:55;;;;;;;34.78;23.13;;;4.20;99.90;;;;;;4960115;28;20061;-85
2020/12/31 07:06:21;;;;;;;30.52;20.67;;;4.20;99.90;;;;;;4959774;28;20027;-85
2020/12/31 07:08:57;;;;;;;32.25;20.88;;;4.20;99.90;;;;;;4959832;28;20033;-85
2020/12/31 07:11:35;;;;;;;39.00;23.90;;;4.10;99.90;;;;;;4959628;28;20623;-84
2020/12/31 07:14:23;;;;;;;29.48;20.50;;;3.90;99.90;;;;;;4977041;28;20534;-85
2020/12/31 07:16:55;;;;;;;30.75;22.10;;;3.90;99.90;;;;;;4957191;29;20047;-85
2020/12/31 07:19:21;;;;;;;32.03;21.55;;;3.90;99.90;;;;;;4958179;29;20078;-84
2020/12/31 07:21:50;;;;;;;40.97;25.85;;;3.90;99.90;;;;;;4957416;29;20086;-83
2020/12/31 07:24:31;;;;;;;34.95;22.73;;;3.80;99.90;;;;;;4956157;29;20058;-84
2020/12/31 07:26:59;;;;;;;34.95;21.42;;;3.80;99.90;;;;;;4955324;28;20035;-88
2020/12/31 07:29:33;;;;;;;30.40;20.75;;;3.80;99.90;;;;;;4940376;29;20045;-85
2020/12/31 07:32:02;;;;;;;33.97;22.23;;;3.70;99.90;;;;;;4957353;28;20027;-84
2020/12/31 07:34:32;;;;;;;33.67;20.73;;;3.70;99.90;;;;;;4955867;29;20059;-84
2020/12/31 07:37:08;;;;;;;37.90;23.98;;;3.60;99.90;;;;;;4957361;29;20027;-88
2020/12/31 07:39:34;;;;;;;29.67;20.10;;;3.60;99.90;;;;;;4959782;29;20086;-85
2020/12/31 07:42:15;;;;;;;32.33;22.13;;;3.70;99.90;;;;;;4943837;29;20400;-86
2020/12/31 07:44:52;;;;;;;36.63;22.73;;;3.80;99.90;;;;;;4956269;29;20031;-85
2020/12/31 07:47:20;;;;;;;35.47;23.23;;;3.60;99.90;;;;;;4959548;29;20023;-84
2020/12/31 07:49:47;;;;;;;44.38;28.40;;;3.60;99.90;;;;;;4959071;29;20042;-84
2020/12/31 07:52:12;;;;;;;50.50;28.58;;;3.50;99.90;;;;;;4942645;29;20031;-84
2020/12/31 07:54:38;;;;;;;47.70;28.05;;;3.30;99.90;;;;;;4943581;29;20070;-84
2020/12/31 07:57:05;;;;;;;41.33;25.00;;;3.20;99.90;;;;;;4925519;29;20118;-85
2020/12/31 07:59:31;;;;;;;39.50;24.67;;;3.20;99.90;;;;;;4977636;29;20055;-85
2020/12/31 08:02:05;;;;;;;35.42;24.25;;;3.40;99.90;;;;;;4967418;29;20046;-84
2020/12/31 08:04:31;;;;;;;39.22;23.40;;;3.40;99.90;;;;;;4957726;29;20035;-83
2020/12/31 08:06:56;;;;;;;37.00;24.05;;;3.40;99.90;;;;;;4924140;29;20122;-84
2020/12/31 08:09:22;;;;;;;41.88;25.70;;;3.30;99.90;;;;;;4939554;29;20397;-84
2020/12/31 08:11:51;;;;;;;38.85;25.40;;;3.30;99.90;;;;;;4939457;29;20038;-84
2020/12/31 08:14:17;;;;;;;43.70;27.15;;;3.30;99.90;;;;;;4940773;28;20065;-85
2020/12/31 08:16:56;;;;;;;45.72;28.23;;;3.40;99.90;;;;;;4942751;28;20454;-85
2020/12/31 08:19:22;;;;;;;57.70;34.35;;;3.40;99.90;;;;;;4958766;28;20431;-85
2020/12/31 08:21:49;;;;;;;41.28;26.25;;;3.40;99.90;;;;;;4943045;28;20121;-86
2020/12/31 08:24:17;;;;;;;41.33;27.77;;;3.50;99.90;;;;;;4959025;28;20035;-87
2020/12/31 08:26:58;;;;;;;44.72;27.17;;;3.50;99.90;;;;;;4942943;28;20031;-85
2020/12/31 08:29:28;;;;;;;44.08;28.45;;;3.50;99.90;;;;;;4975754;28;20042;-84
2020/12/31 08:31:54;;;;;;;42.55;28.38;;;3.60;99.90;;;;;;4976193;28;20058;-86
2020/12/31 08:34:26;;;;;;;41.97;26.60;;;3.70;99.90;;;;;;4942603;28;20034;-87
2020/12/31 08:36:55;;;;;;;45.67;29.23;;;3.70;99.90;;;;;;4942430;28;20042;-88
2020/12/31 08:39:21;;;;;;;44.00;28.95;;;3.60;99.90;;;;;;4941551;28;20129;-86
2020/12/31 08:42:00;;;;;;;51.58;33.15;;;3.60;99.90;;;;;;4974222;28;20037;-86
2020/12/31 08:44:27;;;;;;;55.10;33.00;;;3.70;99.90;;;;;;4942418;28;20027;-85
2020/12/31 08:46:53;;;;;;;61.28;36.35;;;3.60;99.90;;;;;;4975482;28;20038;-86
2020/12/31 08:49:26;;;;;;;44.90;30.13;;;3.40;99.90;;;;;;4957978;28;20042;-86
2020/12/31 08:51:53;;;;;;;48.83;30.10;;;3.40;99.90;;;;;;4941993;28;20699;-86
2020/12/31 08:54:19;;;;;;;42.55;28.95;;;3.50;99.90;;;;;;4957821;28;20126;-86
2020/12/31 08:56:45;;;;;;;49.55;32.42;;;3.60;99.90;;;;;;4958307;28;20023;-81
2020/12/31 08:59:16;;;;;;;48.40;31.23;;;3.50;99.90;;;;;;4941815;28;20041;-87
2020/12/31 09:01:46;;;;;;;47.17;30.38;;;3.50;99.90;;;;;;4958038;28;20027;-86
2020/12/31 09:04:18;;;;;;;44.65;28.35;;;3.50;99.90;;;;;;4975138;28;20077;-86
2020/12/31 09:06:57;;;;;;;56.58;34.85;;;3.50;99.90;;;;;;4975304;28;20138;-86
2020/12/31 09:09:29;;;;;;;40.88;28.08;;;3.60;99.90;;;;;;4942658;28;20134;-86
2020/12/31 09:15:04;;;;;;;51.42;32.00;;;3.90;99.90;;;;;;4975217;28;20149;-87
2020/12/31 09:17:38;;;;;;;44.20;29.00;;;3.80;99.90;;;;;;4957929;28;20065;-85
2020/12/31 09:20:04;;;;;;;40.20;27.48;;;3.80;99.90;;;;;;4976919;28;20035;-86
2020/12/31 09:22:29;;;;;;;40.63;26.75;;;4.00;99.90;;;;;;4958414;28;20123;-86
2020/12/31 09:24:55;;;;;;;45.67;29.33;;;4.00;99.90;;;;;;4941994;28;20031;-85
2020/12/31 09:27:23;;;;;;;47.92;28.98;;;3.90;99.90;;;;;;4959245;28;20034;-87
2020/12/31 09:30:02;;;;;;;38.63;25.98;;;4.00;99.90;;;;;;4960837;28;20062;-84
2020/12/31 09:32:34;;;;;;;40.22;26.92;;;3.90;99.90;;;;;;4979071;28;20094;-85
2020/12/31 09:35:28;;;;;;;40.45;27.27;;;4.00;99.90;;;;;;4961543;28;20034;-85
2020/12/31 09:37:57;;;;;;;42.90;27.77;;;4.10;99.90;;;;;;4960706;28;20121;-86
2020/12/31 09:40:49;;;;;;;39.08;27.70;;;4.10;99.90;;;;;;4965863;28;20141;-87
2020/12/31 09:47:30;;;;;;;42.28;29.38;;;4.00;99.90;;;;;;4918040;29;20161;-84
2020/12/31 09:49:56;;;;;;;47.03;30.50;;;3.90;99.90;;;;;;4920533;29;20123;-84
2020/12/31 09:52:44;;;;;;;38.00;26.83;;;3.90;99.90;;;;;;4962565;28;20062;-84
2020/12/31 09:55:15;;;;;;;42.10;27.40;;;3.90;99.90;;;;;;4961620;28;20062;-86
2020/12/31 09:57:47;;;;;;;39.25;26.08;;;4.00;99.90;;;;;;4961916;28;20027;-84
2020/12/31 10:00:24;;;;;;;39.30;26.45;;;4.10;99.90;;;;;;4978793;28;20062;-85
2020/12/31 10:02:50;;;;;;;39.45;26.88;;;4.10;99.90;;;;;;4958776;29;20105;-86
2020/12/31 10:05:41;;;;;;;44.15;29.27;;;4.10;99.90;;;;;;4961865;28;20548;-86
2020/12/31 10:08:12;;;;;;;35.72;24.92;;;4.20;99.90;;;;;;4966311;28;20034;-87
2020/12/31 10:10:47;;;;;;;42.28;27.00;;;4.40;99.90;;;;;;4962136;28;20151;-87
2020/12/31 10:13:13;;;;;;;39.53;27.48;;;4.40;99.90;;;;;;4945938;28;20495;-85
2020/12/31 10:15:44;;;;;;;36.03;25.13;;;4.40;99.90;;;;;;4960670;28;20138;-85
2020/12/31 10:18:12;;;;;;;36.22;25.30;;;4.50;99.90;;;;;;4979355;28;20042;-86
2020/12/31 10:20:59;;;;;;;37.88;24.92;;;4.60;99.90;;;;;;4960500;28;20031;-86
2020/12/31 10:23:27;;;;;;;41.40;27.13;;;4.70;99.90;;;;;;4977823;28;20038;-86
2020/12/31 10:25:53;;;;;;;42.47;28.90;;;4.60;99.90;;;;;;4959748;28;20051;-86
2020/12/31 10:28:22;;;;;;;46.22;31.13;;;4.50;99.90;;;;;;4960803;28;20027;-86
2020/12/31 10:30:49;;;;;;;48.30;31.35;;;4.10;99.90;;;;;;4960407;28;20404;-84
2020/12/31 10:33:15;;;;;;;39.45;26.50;;;4.20;99.90;;;;;;4961238;28;20033;-84
2020/12/31 10:35:41;;;;;;;40.80;28.25;;;4.30;99.90;;;;;;4970359;28;20031;-83
2020/12/31 10:38:07;;;;;;;42.72;27.45;;;4.40;99.90;;;;;;4968918;28;20027;-85
2020/12/31 10:40:33;;;;;;;47.97;30.70;;;4.50;99.90;;;;;;4962747;28;20066;-85
2020/12/31 10:42:59;;;;;;;47.53;32.28;;;4.40;99.90;;;;;;4962540;28;20057;-86
2020/12/31 10:45:27;;;;;;;43.88;28.77;;;4.50;99.90;;;;;;4962008;28;20090;-86
2020/12/31 10:47:53;;;;;;;47.10;29.42;;;4.60;99.90;;;;;;4944705;28;20110;-87
2020/12/31 10:50:21;;;;;;;42.63;29.73;;;4.60;99.90;;;;;;4960033;28;20126;-91
2020/12/31 10:52:46;;;;;;;44.75;30.80;;;4.70;99.90;;;;;;4944840;28;20488;-85
2020/12/31 10:55:14;;;;;;;47.35;31.38;;;4.70;99.90;;;;;;4944026;28;20069;-87
2020/12/31 10:57:40;;;;;;;50.88;32.58;;;4.50;99.90;;;;;;4977634;28;20093;-86
2020/12/31 11:00:06;;;;;;;53.38;34.00;;;4.50;99.90;;;;;;4960529;28;20030;-86
2020/12/31 11:02:31;;;;;;;60.00;35.13;;;4.40;99.90;;;;;;4958381;28;20030;-86
2020/12/31 11:04:57;;;;;;;58.05;34.13;;;4.30;99.90;;;;;;4944237;28;20044;-86
2020/12/31 11:07:23;;;;;;;52.15;33.70;;;4.40;99.90;;;;;;4943603;28;20030;-86
2020/12/31 11:09:52;;;;;;;53.10;34.08;;;4.70;99.90;;;;;;4943941;28;20042;-86
2020/12/31 11:12:17;;;;;;;51.75;34.45;;;4.70;99.90;;;;;;4959691;28;20580;-84
2020/12/31 11:14:43;;;;;;;56.08;36.03;;;4.60;99.90;;;;;;4959656;28;20121;-86
2020/12/31 11:17:08;;;;;;;61.13;39.05;;;4.40;99.90;;;;;;4944579;28;20105;-84
2020/12/31 11:19:34;;;;;;;60.75;36.80;;;4.50;99.90;;;;;;4928317;28;20468;-85
2020/12/31 11:22:00;;;;;;;60.88;37.35;;;4.60;99.90;;;;;;4943594;28;20066;-85
2020/12/31 11:24:25;;;;;;;54.90;36.13;;;4.70;99.90;;;;;;4927975;28;20026;-86
2020/12/31 11:26:51;;;;;;;56.25;36.20;;;4.70;99.90;;;;;;4959997;28;20033;-86
2020/12/31 11:29:16;;;;;;;69.85;42.65;;;4.80;99.90;;;;;;4943936;28;20089;-85
2020/12/31 11:31:42;;;;;;;65.30;41.03;;;4.80;99.90;;;;;;4943675;28;20038;-85
2020/12/31 11:34:08;;;;;;;63.20;36.83;;;4.70;99.90;;;;;;4977371;28;20034;-84
2020/12/31 11:36:34;;;;;;;58.35;36.95;;;4.70;99.90;;;;;;4960216;28;20035;-84
2020/12/31 11:38:59;;;;;;;55.53;35.55;;;4.70;99.90;;;;;;4977053;28;20030;-85
2020/12/31 11:41:27;;;;;;;55.10;34.85;;;4.80;99.90;;;;;;4946931;28;20034;-84
2020/12/31 11:43:53;;;;;;;60.75;36.50;;;4.70;99.90;;;;;;4944666;28;20432;-86
2020/12/31 11:46:19;;;;;;;85.05;43.50;;;4.70;99.90;;;;;;4943767;28;20070;-85
2020/12/31 11:48:45;;;;;;;67.35;37.65;;;4.70;99.90;;;;;;4943966;28;20035;-83
2020/12/31 11:51:11;;;;;;;70.20;38.65;;;4.70;99.90;;;;;;4944248;28;20138;-82
2020/12/31 11:53:41;;;;;;;66.72;38.67;;;4.90;99.90;;;;;;4959893;28;20026;-84
2020/12/31 11:56:07;;;;;;;55.45;35.10;;;5.00;99.90;;;;;;4978050;28;20033;-86
2020/12/31 11:58:33;;;;;;;61.10;36.53;;;5.10;99.90;;;;;;4977359;28;20473;-83
2020/12/31 12:00:59;;;;;;;51.15;32.20;;;5.20;99.90;;;;;;4977713;28;20039;-85
2020/12/31 12:03:26;;;;;;;54.13;33.58;;;5.60;99.90;;;;;;4944859;28;20030;-86
2020/12/31 12:05:52;;;;;;;48.72;31.42;;;5.70;99.90;;;;;;4981225;28;20037;-85
2020/12/31 12:08:19;;;;;;;45.65;30.77;;;6.00;99.90;;;;;;4979038;28;20065;-85
2020/12/31 12:10:49;;;;;;;42.85;30.67;;;6.40;99.90;;;;;;4963579;28;20038;-86
2020/12/31 12:13:16;;;;;;;43.35;29.30;;;6.40;99.90;;;;;;4968376;28;20041;-86
2020/12/31 12:15:47;;;;;;;41.97;28.00;;;6.30;99.90;;;;;;4948511;28;20059;-86
2020/12/31 12:18:13;;;;;;;45.70;31.55;;;6.30;99.90;;;;;;4930051;28;20039;-85
2020/12/31 12:20:38;;;;;;;53.92;33.67;;;6.20;99.90;;;;;;4927837;28;20054;-85
2020/12/31 12:23:04;;;;;;;46.40;29.73;;;6.00;99.90;;;;;;4942764;28;20496;-85
2020/12/31 12:25:30;;;;;;;41.38;29.63;;;6.00;99.90;;;;;;4942772;28;20461;-85
2020/12/31 12:27:55;;;;;;;41.60;27.85;;;5.90;99.90;;;;;;4959006;28;20061;-85
2020/12/31 12:30:21;;;;;;;49.25;29.20;;;5.90;99.90;;;;;;4958178;28;20039;-86
2020/12/31 12:32:47;;;;;;;42.47;27.85;;;5.90;99.90;;;;;;4925969;28;20034;-85
2020/12/31 12:35:13;;;;;;;46.38;28.45;;;5.80;99.90;;;;;;4945268;28;20031;-85
2020/12/31 12:37:40;;;;;;;43.17;29.42;;;5.90;99.90;;;;;;4943652;28;20373;-85
2020/12/31 12:40:08;;;;;;;49.90;30.40;;;5.90;99.90;;;;;;4958667;28;20038;-85
2020/12/31 12:42:35;;;;;;;41.35;28.58;;;6.00;99.90;;;;;;4975577;28;20019;-85
2020/12/31 12:45:03;;;;;;;47.58;30.15;;;6.10;99.90;;;;;;4975834;28;20055;-85
2020/12/31 12:47:28;;;;;;;46.65;29.58;;;6.00;99.90;;;;;;4942969;28;20053;-84
2020/12/31 12:49:54;;;;;;;45.97;28.38;;;6.00;99.90;;;;;;4926758;28;20035;-86
2020/12/31 12:52:20;;;;;;;48.72;29.30;;;5.90;99.90;;;;;;4958236;28;20391;-83
2020/12/31 12:54:45;;;;;;;46.45;27.52;;;5.90;99.90;;;;;;4958106;28;20034;-84
2020/12/31 12:57:11;;;;;;;54.90;31.42;;;5.90;99.90;;;;;;4926830;28;20484;-85